createdAt,value
2022-11-15T00:01:30.624Z,97770.06
2022-11-15T00:03:32.324Z,97771.75
2022-11-15T00:05:33.762Z,97776.84
2022-11-15T00:07:54.583Z,97764.13
2022-11-15T00:09:56.294Z,97762.41
2022-11-15T00:11:57.621Z,97762.41
2022-11-15T00:13:59.572Z,97763.25
2022-11-15T00:16:01.601Z,97761.63
2022-11-15T00:18:02.896Z,97759.94
2022-11-15T00:20:04.310Z,97759.91
2022-11-15T00:22:05.601Z,97753.94
2022-11-15T00:24:06.870Z,97749.69
2022-11-15T00:26:08.160Z,97753.13
2022-11-15T00:28:09.472Z,97754.03
2022-11-15T00:30:10.754Z,97749.78
2022-11-15T00:32:12.083Z,97754.09
2022-11-15T00:34:13.400Z,97753.25
2022-11-15T00:36:14.745Z,97753.28
2022-11-15T00:38:16.049Z,97750.75
2022-11-15T00:40:17.348Z,97749.91
2022-11-15T00:42:18.638Z,97748.22
2022-11-15T00:44:19.937Z,97751.66
2022-11-15T00:46:21.279Z,97751.66
2022-11-15T00:48:22.615Z,97742.31
2022-11-15T00:50:23.973Z,97743.06
2022-11-15T00:52:25.251Z,97742.94
2022-11-15T00:54:26.558Z,97748.75
2022-11-15T00:56:27.906Z,97749.56
2022-11-15T00:58:29.194Z,97745.34
2022-11-15T01:00:30.596Z,97747.91
2022-11-15T01:02:31.924Z,97743.66
2022-11-15T01:04:33.256Z,97741.13
2022-11-15T01:06:34.558Z,97736.91
2022-11-15T01:08:35.902Z,97734.38
2022-11-15T01:10:37.189Z,97735.28
2022-11-15T01:12:38.473Z,97735.34
2022-11-15T01:14:39.745Z,97732.91
2022-11-15T01:16:41.089Z,97741.47
2022-11-15T01:18:42.446Z,97730.47
2022-11-15T01:20:43.801Z,97727.09
2022-11-15T01:22:45.112Z,97721.19
2022-11-15T01:24:46.406Z,97730.59
2022-11-15T01:26:47.736Z,97718.72
2022-11-15T01:28:49.020Z,97722.16
2022-11-15T01:30:50.338Z,97729.81
2022-11-15T01:32:51.614Z,97727.25
2022-11-15T01:34:52.900Z,97732.34
2022-11-15T01:36:54.196Z,97718.78
2022-11-15T01:38:56.367Z,97720.53
2022-11-15T01:40:57.674Z,97726.47
2022-11-15T01:42:59.152Z,97740.91
2022-11-15T01:45:00.455Z,97746.84
2022-11-15T01:47:01.798Z,97746.00
2022-11-15T01:49:03.100Z,97740.09
2022-11-15T01:51:04.437Z,97740.94
2022-11-15T01:53:05.748Z,97723.13
2022-11-15T01:55:07.033Z,97709.53
2022-11-15T01:57:08.296Z,97713.84
2022-11-15T01:59:09.632Z,97716.41
2022-11-15T02:01:11.012Z,97720.66
2022-11-15T02:03:12.323Z,97714.69
2022-11-15T02:05:13.618Z,97723.22
2022-11-15T02:07:14.988Z,97723.19
2022-11-15T02:09:16.591Z,97716.41
2022-11-15T02:11:17.987Z,97708.78
2022-11-15T02:13:19.331Z,97702.00
2022-11-15T02:15:20.789Z,97695.22
2022-11-15T02:17:22.126Z,97704.56
2022-11-15T02:19:23.443Z,97702.88
2022-11-15T02:21:24.740Z,97696.94
2022-11-15T02:23:26.063Z,97690.03
2022-11-15T02:25:27.566Z,97691.75
2022-11-15T02:27:28.844Z,97689.16
2022-11-15T02:29:30.396Z,97683.81
2022-11-15T02:31:31.665Z,97686.38
2022-11-15T02:33:33.265Z,97678.91
2022-11-15T02:35:34.805Z,97685.66
2022-11-15T02:37:36.636Z,97690.78
2022-11-15T02:39:38.109Z,97680.56
2022-11-15T02:41:39.381Z,97679.75
2022-11-15T02:43:59.289Z,97675.50
2022-11-15T02:46:00.604Z,97675.47
2022-11-15T02:48:01.886Z,97677.09
2022-11-15T02:50:03.222Z,97677.94
2022-11-15T02:52:04.540Z,97663.56
2022-11-15T02:54:05.829Z,97663.56
2022-11-15T02:56:07.109Z,97657.63
2022-11-15T02:58:08.398Z,97666.16
2022-11-15T03:00:09.741Z,97645.84
2022-11-15T03:02:11.054Z,97649.25
2022-11-15T03:04:12.336Z,97648.47
2022-11-15T03:06:13.646Z,97651.09
2022-11-15T03:08:14.921Z,97655.34
2022-11-15T03:10:18.153Z,97649.50
2022-11-15T03:12:19.946Z,97658.00
2022-11-15T03:14:21.293Z,97656.41
2022-11-15T03:16:22.631Z,97654.66
2022-11-15T03:18:24.452Z,97650.41
2022-11-15T03:20:26.192Z,97654.66
2022-11-15T03:22:27.605Z,97654.66
2022-11-15T03:24:28.879Z,97650.47
2022-11-15T03:26:30.601Z,97643.72
2022-11-15T03:28:31.884Z,97597.69
2022-11-15T03:30:33.749Z,97642.09
2022-11-15T03:32:35.041Z,97644.59
2022-11-15T03:34:36.328Z,97639.50
2022-11-15T03:36:38.109Z,97636.94
2022-11-15T03:38:39.916Z,97635.19
2022-11-15T03:40:41.250Z,97636.88
2022-11-15T03:42:42.988Z,97634.28
2022-11-15T03:44:44.597Z,97619.00
2022-11-15T03:46:45.877Z,97621.50
2022-11-15T03:48:47.400Z,97621.50
2022-11-15T03:50:48.718Z,97622.34
2022-11-15T03:52:50.021Z,97618.13
2022-11-15T03:54:51.590Z,97618.16
2022-11-15T03:56:52.898Z,97609.72
2022-11-15T03:58:54.614Z,97619.84
2022-11-15T04:00:56.350Z,97612.16
2022-11-15T04:02:57.712Z,97622.31
2022-11-15T04:04:59.007Z,97617.19
2022-11-15T04:07:03.515Z,97620.53
2022-11-15T04:09:04.834Z,97614.59
2022-11-15T04:11:07.657Z,97623.03
2022-11-15T04:13:09.177Z,97615.38
2022-11-15T04:15:10.912Z,97617.84
2022-11-15T04:17:12.216Z,97617.03
2022-11-15T04:19:32.685Z,97617.03
2022-11-15T04:21:52.507Z,97622.13
2022-11-15T04:24:06.075Z,97621.16
2022-11-15T04:26:08.732Z,97612.56
2022-11-15T04:28:10.048Z,97604.06
2022-11-15T04:30:11.663Z,97604.13
2022-11-15T04:32:12.941Z,97597.38
2022-11-15T04:34:14.484Z,97598.25
2022-11-15T04:36:34.309Z,97607.66
2022-11-15T04:38:35.624Z,97604.31
2022-11-15T04:40:37.365Z,97610.28
2022-11-15T04:42:38.653Z,97604.41
2022-11-15T04:44:40.007Z,97601.84
2022-11-15T04:46:41.544Z,97593.47
2022-11-15T04:48:42.854Z,97597.84
2022-11-15T04:50:44.670Z,97594.47
2022-11-15T04:52:46.372Z,97593.72
2022-11-15T04:54:47.689Z,97597.16
2022-11-15T04:56:49.069Z,97597.00
2022-11-15T04:58:50.599Z,97595.31
2022-11-15T05:00:51.997Z,97599.59
2022-11-15T05:03:12.313Z,97591.97
2022-11-15T05:05:13.632Z,97609.91
2022-11-15T05:07:14.968Z,97604.81
2022-11-15T05:09:16.476Z,97611.59
2022-11-15T05:11:17.762Z,97601.41
2022-11-15T05:13:19.104Z,97598.88
2022-11-15T05:15:20.410Z,97601.63
2022-11-15T05:17:21.689Z,97608.84
2022-11-15T05:19:23.001Z,97608.91
2022-11-15T05:21:24.299Z,97609.06
2022-11-15T05:23:25.642Z,97596.94
2022-11-15T05:25:27.417Z,97609.47
2022-11-15T05:27:30.322Z,97601.72
2022-11-15T05:29:31.609Z,97599.22
2022-11-15T05:31:32.957Z,97589.16
2022-11-15T05:33:34.777Z,97586.78
2022-11-15T05:35:36.653Z,97581.03
2022-11-15T05:37:38.456Z,97591.63
2022-11-15T05:39:39.736Z,97591.28
2022-11-15T05:41:44.753Z,97594.38
2022-11-15T05:43:46.080Z,97591.59
2022-11-15T05:45:47.785Z,97593.19
2022-11-15T05:47:49.072Z,97594.69
2022-11-15T05:49:50.538Z,97591.22
2022-11-15T05:51:54.741Z,97587.75
2022-11-15T05:53:56.214Z,97588.59
2022-11-15T05:55:57.928Z,97593.69
2022-11-15T05:57:59.228Z,97590.28
2022-11-15T06:00:00.552Z,97584.41
2022-11-15T06:02:02.468Z,97590.41
2022-11-15T06:04:03.849Z,97596.44
2022-11-15T06:06:05.476Z,97594.88
2022-11-15T06:08:07.238Z,97589.97
2022-11-15T06:10:08.533Z,97593.53
2022-11-15T06:12:14.624Z,97597.94
2022-11-15T06:14:15.909Z,97594.69
2022-11-15T06:16:17.594Z,97594.84
2022-11-15T06:18:18.868Z,97593.25
2022-11-15T06:20:21.029Z,97584.88
2022-11-15T06:22:22.299Z,97594.34
2022-11-15T06:24:23.946Z,97591.91
2022-11-15T06:26:25.258Z,97586.94
2022-11-15T06:28:26.536Z,97584.44
2022-11-15T06:30:28.433Z,97591.31
2022-11-15T06:32:29.726Z,97595.63
2022-11-15T06:34:33.822Z,97598.31
2022-11-15T06:36:35.490Z,97605.16
2022-11-15T06:38:37.266Z,97609.44
2022-11-15T06:40:38.559Z,97599.31
2022-11-15T06:42:39.865Z,97609.56
2022-11-15T06:44:41.672Z,97599.50
2022-11-15T06:46:42.999Z,97597.00
2022-11-15T06:48:44.680Z,97604.69
2022-11-15T06:50:45.964Z,97602.19
2022-11-15T06:52:47.572Z,97600.56
2022-11-15T06:54:48.925Z,97604.00
2022-11-15T06:56:50.419Z,97604.91
2022-11-15T06:58:51.697Z,97606.69
2022-11-15T07:00:53.077Z,97599.94
2022-11-15T07:02:54.875Z,97605.91
2022-11-15T07:04:56.512Z,97607.66
2022-11-15T07:06:58.509Z,97612.78
2022-11-15T07:08:59.840Z,97613.69
2022-11-15T07:11:06.290Z,97614.59
2022-11-15T07:13:07.581Z,97618.84
2022-11-15T07:15:09.954Z,97614.63
2022-11-15T07:17:11.226Z,97621.44
2022-11-15T07:19:12.529Z,97607.06
2022-11-15T07:21:19.130Z,97613.91
2022-11-15T07:23:22.592Z,97613.06
2022-11-15T07:25:23.860Z,97610.59
2022-11-15T07:27:25.880Z,97601.28
2022-11-15T07:29:27.794Z,97603.84
2022-11-15T07:31:29.817Z,97603.84
2022-11-15T07:33:31.697Z,97603.78
2022-11-15T07:35:33.241Z,97609.66
2022-11-15T07:37:34.779Z,97611.31
2022-11-15T07:39:36.101Z,97605.28
2022-11-15T07:41:39.961Z,97611.16
2022-11-15T07:43:41.298Z,97615.34
2022-11-15T07:45:42.660Z,97606.75
2022-11-15T07:47:44.586Z,97603.25
2022-11-15T07:49:47.512Z,97605.72
2022-11-15T07:51:48.795Z,97600.56
2022-11-15T07:53:50.525Z,97597.91
2022-11-15T07:55:51.829Z,97597.84
2022-11-15T07:57:53.503Z,97594.41
2022-11-15T07:59:55.418Z,97599.44
2022-11-15T08:01:56.837Z,97488.88
2022-11-15T08:03:58.139Z,97590.91
2022-11-15T08:06:00.009Z,97604.47
2022-11-15T08:08:01.325Z,97599.38
2022-11-15T08:10:03.064Z,97599.38
2022-11-15T08:12:04.387Z,97596.00
2022-11-15T08:14:05.705Z,97593.50
2022-11-15T08:16:07.034Z,97478.88
2022-11-15T08:18:08.325Z,97591.00
2022-11-15T08:20:09.603Z,97586.81
2022-11-15T08:22:10.872Z,97586.03
2022-11-15T08:24:12.185Z,97581.84
2022-11-15T08:26:13.497Z,97576.81
2022-11-15T08:28:14.822Z,97574.31
2022-11-15T08:30:17.095Z,97581.16
2022-11-15T08:32:18.857Z,97581.22
2022-11-15T08:34:20.137Z,97577.88
2022-11-15T08:36:21.425Z,97569.41
2022-11-15T08:38:22.776Z,97575.38
2022-11-15T08:40:24.220Z,97568.66
2022-11-15T08:42:25.596Z,97561.91
2022-11-15T08:44:26.881Z,97570.41
2022-11-15T08:46:28.208Z,97561.09
2022-11-15T08:48:29.687Z,97561.94
2022-11-15T08:50:31.100Z,97562.78
2022-11-15T08:52:32.909Z,97561.06
2022-11-15T08:54:34.243Z,97558.59
2022-11-15T08:56:35.560Z,97566.22
2022-11-15T08:58:36.871Z,97559.47
2022-11-15T09:00:38.220Z,97553.56
2022-11-15T09:02:39.694Z,97557.00
2022-11-15T09:04:41.196Z,97558.69
2022-11-15T09:06:43.434Z,97557.06
2022-11-15T09:08:47.881Z,97552.00
2022-11-15T09:10:58.610Z,97555.38
2022-11-15T09:12:59.901Z,97550.34
2022-11-15T09:15:01.195Z,97554.53
2022-11-15T09:17:02.483Z,97545.16
2022-11-15T09:19:07.604Z,97551.84
2022-11-15T09:21:12.725Z,97550.91
2022-11-15T09:23:14.015Z,97547.41
2022-11-15T09:25:15.509Z,97548.19
2022-11-15T09:27:16.803Z,97548.94
2022-11-15T09:29:18.300Z,97549.69
2022-11-15T09:31:22.229Z,97547.00
2022-11-15T09:33:23.732Z,97546.91
2022-11-15T09:35:25.041Z,97557.84
2022-11-15T09:37:26.318Z,97549.28
2022-11-15T09:39:27.698Z,97545.75
2022-11-15T09:41:28.981Z,97540.59
2022-11-15T09:43:30.293Z,97541.34
2022-11-15T09:45:31.578Z,97540.44
2022-11-15T09:47:32.912Z,97541.22
2022-11-15T09:49:34.183Z,97536.13
2022-11-15T09:51:35.516Z,97540.38
2022-11-15T09:54:18.556Z,97538.69
2022-11-15T09:55:58.265Z,97528.50
2022-11-15T09:57:59.555Z,97526.84
2022-11-15T10:00:23.906Z,97537.03
2022-11-15T10:02:22.293Z,97527.75
2022-11-15T10:04:23.606Z,97528.66
2022-11-15T10:06:24.923Z,97516.78
2022-11-15T10:08:26.201Z,97529.53
2022-11-15T10:10:27.481Z,97526.19
2022-11-15T10:12:28.778Z,97526.25
2022-11-15T10:14:30.101Z,97524.59
2022-11-15T10:16:31.416Z,97522.06
2022-11-15T10:18:33.002Z,97522.97
2022-11-15T10:20:36.947Z,97520.50
2022-11-15T10:22:38.301Z,97515.44
2022-11-15T10:24:39.598Z,97514.59
2022-11-15T10:26:40.884Z,97519.69
2022-11-15T10:28:42.253Z,97509.56
2022-11-15T10:30:43.546Z,97511.31
2022-11-15T10:32:44.942Z,97504.59
2022-11-15T10:34:46.240Z,97502.06
2022-11-15T10:36:50.257Z,97503.03
2022-11-15T10:38:51.882Z,97498.84
2022-11-15T10:40:53.204Z,97492.97
2022-11-15T10:42:54.513Z,97493.03
2022-11-15T10:44:55.855Z,97487.19
2022-11-15T10:46:57.467Z,97487.19
2022-11-15T10:48:58.768Z,97482.16
2022-11-15T10:51:00.052Z,97479.63
2022-11-15T10:53:01.372Z,97480.53
2022-11-15T10:55:03.477Z,97477.19
2022-11-15T10:57:04.780Z,97474.72
2022-11-15T10:59:06.116Z,97473.88
2022-11-15T11:01:07.442Z,97467.91
2022-11-15T11:03:08.777Z,97469.63
2022-11-15T11:05:10.077Z,97467.06
2022-11-15T11:07:11.394Z,97469.53
2022-11-15T11:09:12.805Z,97455.09
2022-11-15T11:11:14.085Z,97451.66
2022-11-15T11:13:15.809Z,97463.47
2022-11-15T11:15:17.109Z,97457.47
2022-11-15T11:17:18.897Z,97454.06
2022-11-15T11:19:20.224Z,97448.13
2022-11-15T11:21:25.675Z,97453.16
2022-11-15T11:23:31.839Z,97450.56
2022-11-15T11:25:33.301Z,97446.31
2022-11-15T11:27:34.586Z,97442.88
2022-11-15T11:29:35.954Z,97442.00
2022-11-15T11:31:37.229Z,97437.72
2022-11-15T11:33:38.561Z,97430.09
2022-11-15T11:35:39.853Z,97432.63
2022-11-15T11:37:41.177Z,97435.13
2022-11-15T11:39:42.605Z,97430.91
2022-11-15T11:41:43.902Z,97428.38
2022-11-15T11:43:45.362Z,97422.41
2022-11-15T11:45:47.735Z,97427.53
2022-11-15T11:47:49.701Z,97419.91
2022-11-15T11:49:50.985Z,97423.34
2022-11-15T11:51:52.278Z,97419.16
2022-11-15T11:53:53.711Z,97410.75
2022-11-15T11:55:55.010Z,97409.06
2022-11-15T11:57:56.304Z,97417.63
2022-11-15T11:59:57.736Z,97410.03
2022-11-15T12:01:59.075Z,97408.41
2022-11-15T12:04:00.433Z,97398.25
2022-11-15T12:06:02.281Z,97395.75
2022-11-15T12:08:04.427Z,97395.81
2022-11-15T12:10:05.814Z,97391.63
2022-11-15T12:12:07.182Z,97395.03
2022-11-15T12:14:08.452Z,97384.88
2022-11-15T12:16:10.755Z,97385.78
2022-11-15T12:18:12.146Z,97383.28
2022-11-15T12:20:13.437Z,97381.59
2022-11-15T12:22:14.846Z,97379.13
2022-11-15T12:24:16.166Z,97379.13
2022-11-15T12:26:17.493Z,97381.66
2022-11-15T12:28:18.812Z,97377.47
2022-11-15T12:30:20.122Z,97367.31
2022-11-15T12:32:21.404Z,97368.16
2022-11-15T12:34:23.167Z,97363.13
2022-11-15T12:36:24.480Z,97356.34
2022-11-15T12:38:25.896Z,97359.69
2022-11-15T12:40:27.225Z,97358.06
2022-11-15T12:42:28.500Z,97354.66
2022-11-15T12:44:29.770Z,97347.81
2022-11-15T12:46:31.109Z,97346.97
2022-11-15T12:48:32.513Z,97341.00
2022-11-15T12:50:34.016Z,97343.47
2022-11-15T12:52:35.316Z,97350.19
2022-11-15T12:54:36.602Z,97341.75
2022-11-15T12:56:37.918Z,97342.50
2022-11-15T12:58:39.190Z,97346.72
2022-11-15T13:00:40.482Z,97345.00
2022-11-15T13:02:42.785Z,97334.81
2022-11-15T13:04:44.062Z,97333.06
2022-11-15T13:06:45.368Z,97333.91
2022-11-15T13:08:48.641Z,97330.47
2022-11-15T13:10:50.007Z,97322.00
2022-11-15T13:12:51.397Z,97330.53
2022-11-15T13:14:52.737Z,97327.97
2022-11-15T13:16:54.368Z,97330.47
2022-11-15T13:18:55.636Z,97326.22
2022-11-15T13:21:02.167Z,97316.03
2022-11-15T13:23:04.182Z,97313.50
2022-11-15T13:25:05.497Z,97311.81
2022-11-15T13:27:06.768Z,97312.66
2022-11-15T13:29:08.370Z,97311.81
2022-11-15T13:31:10.015Z,97312.72
2022-11-15T13:33:11.306Z,97309.34
2022-11-15T13:35:12.614Z,97306.84
2022-11-15T13:37:13.954Z,97308.56
2022-11-15T13:39:15.245Z,97308.56
2022-11-15T13:41:16.563Z,97311.13
2022-11-15T13:43:17.866Z,97310.31
2022-11-15T13:45:19.200Z,97304.41
2022-11-15T13:47:20.535Z,97312.94
2022-11-15T13:49:21.899Z,97301.97
2022-11-15T13:51:23.184Z,97310.47
2022-11-15T13:53:24.538Z,97308.78
2022-11-15T13:55:25.824Z,97308.81
2022-11-15T13:57:28.774Z,97298.66
2022-11-15T13:59:30.044Z,97306.41
2022-11-15T14:01:31.436Z,97301.31
2022-11-15T14:03:32.756Z,97310.69
2022-11-15T14:05:35.000Z,97304.81
2022-11-15T14:07:43.275Z,97287.94
2022-11-15T14:09:50.961Z,97287.09
2022-11-15T14:11:52.267Z,97280.38
2022-11-15T14:13:53.533Z,97284.56
2022-11-15T14:15:57.120Z,97287.09
2022-11-15T14:17:59.051Z,97292.19
2022-11-15T14:20:00.789Z,97296.38
2022-11-15T14:22:05.117Z,97299.75
2022-11-15T14:24:06.401Z,97301.38
2022-11-15T14:26:12.105Z,97306.41
2022-11-15T14:28:14.501Z,97297.81
2022-11-15T14:30:15.898Z,97288.44
2022-11-15T14:32:17.194Z,97294.25
2022-11-15T14:34:18.821Z,97298.41
2022-11-15T14:36:20.168Z,97289.94
2022-11-15T14:38:21.785Z,97282.25
2022-11-15T14:40:24.393Z,97288.13
2022-11-15T14:42:25.690Z,97279.66
2022-11-15T14:44:26.978Z,97274.50
2022-11-15T14:46:31.005Z,97278.69
2022-11-15T14:48:32.517Z,97273.59
2022-11-15T14:50:34.017Z,97265.97
2022-11-15T14:52:38.645Z,97265.16
2022-11-15T14:54:39.993Z,97273.59
2022-11-15T14:56:42.647Z,97270.25
2022-11-15T14:58:44.770Z,97268.59
2022-11-15T15:00:46.037Z,97268.59
2022-11-15T15:02:47.692Z,97271.22
2022-11-15T15:04:49.909Z,97264.50
2022-11-15T15:06:51.739Z,97269.59
2022-11-15T15:08:53.072Z,97265.47
2022-11-15T15:10:54.559Z,97264.63
2022-11-15T15:12:58.233Z,97268.94
2022-11-15T15:14:59.514Z,97266.47
2022-11-15T15:17:00.780Z,97262.28
2022-11-15T15:19:02.594Z,97262.34
2022-11-15T15:21:07.985Z,97259.84
2022-11-15T15:23:12.575Z,97262.41
2022-11-15T15:25:16.545Z,97265.00
2022-11-15T15:27:17.859Z,97259.13
2022-11-15T15:29:21.809Z,97260.00
2022-11-15T15:31:27.589Z,97253.22
2022-11-15T15:33:29.483Z,97259.19
2022-11-15T15:35:31.301Z,97255.88
2022-11-15T15:37:34.529Z,97258.41
2022-11-15T15:39:37.989Z,97252.47
2022-11-15T15:41:39.266Z,97250.78
2022-11-15T15:43:42.822Z,97247.41
2022-11-15T15:45:46.390Z,97243.16
2022-11-15T15:47:47.684Z,97245.66
2022-11-15T15:49:49.500Z,97241.41
2022-11-15T15:51:51.718Z,97249.81
2022-11-15T15:53:58.661Z,97244.63
2022-11-15T15:55:59.949Z,97237.78
2022-11-15T15:58:01.238Z,97245.28
2022-11-15T16:00:04.430Z,97242.66
2022-11-15T16:02:05.719Z,97239.13
2022-11-15T16:04:07.004Z,97237.34
2022-11-15T16:06:08.656Z,97235.53
2022-11-15T16:08:09.982Z,97232.88
2022-11-15T16:10:14.081Z,97222.63
2022-11-15T16:12:17.262Z,97226.75
2022-11-15T16:14:20.401Z,97225.00
2022-11-15T16:16:23.448Z,97225.00
2022-11-15T16:18:24.730Z,97214.03
2022-11-15T16:20:28.094Z,97219.19
2022-11-15T16:22:30.179Z,97224.28
2022-11-15T16:24:32.117Z,97219.34
2022-11-15T16:26:34.077Z,97233.81
2022-11-15T16:28:36.070Z,97222.00
2022-11-15T16:30:37.665Z,97221.22
2022-11-15T16:32:40.116Z,97213.63
2022-11-15T16:34:46.132Z,97213.72
2022-11-15T16:36:50.774Z,97217.22
2022-11-15T16:38:52.069Z,97218.94
2022-11-15T16:40:53.340Z,97221.59
2022-11-15T16:42:58.602Z,97212.31
2022-11-15T16:45:01.468Z,97223.38
2022-11-15T16:47:02.755Z,97220.03
2022-11-15T16:49:05.257Z,97210.81
2022-11-15T16:51:06.536Z,97214.22
2022-11-15T16:53:10.693Z,97217.69
2022-11-15T16:55:12.457Z,97211.81
2022-11-15T16:57:13.736Z,97214.38
2022-11-15T16:59:15.476Z,97211.81
2022-11-15T17:01:16.818Z,97210.19
2022-11-15T17:03:18.888Z,97205.13
2022-11-15T17:05:20.722Z,97204.28
2022-11-15T17:07:22.658Z,97198.41
2022-11-15T17:09:29.339Z,97194.16
2022-11-15T17:11:30.616Z,97205.19
2022-11-15T17:13:33.851Z,97199.25
2022-11-15T17:15:36.201Z,97203.47
2022-11-15T17:17:38.028Z,97203.47
2022-11-15T17:19:39.292Z,97195.72
2022-11-15T17:21:40.797Z,97192.25
2022-11-15T17:23:42.617Z,97196.38
2022-11-15T17:25:44.294Z,97192.06
2022-11-15T17:27:45.664Z,97195.34
2022-11-15T17:29:46.947Z,97202.81
2022-11-15T17:31:49.011Z,97205.28
2022-11-15T17:33:50.357Z,97200.97
2022-11-15T17:35:51.685Z,97198.28
2022-11-15T17:37:53.721Z,97189.72
2022-11-15T17:39:57.441Z,97187.91
2022-11-15T17:41:58.762Z,97184.38
2022-11-15T17:44:04.313Z,97185.06
2022-11-15T17:46:07.576Z,97189.22
2022-11-15T17:48:09.499Z,97194.25
2022-11-15T17:50:12.256Z,97184.94
2022-11-15T17:52:13.557Z,97183.31
2022-11-15T17:54:14.937Z,97183.38
2022-11-15T17:56:16.629Z,97185.22
2022-11-15T17:58:18.720Z,97179.41
2022-11-15T18:00:21.697Z,97184.63
2022-11-15T18:02:23.780Z,97184.72
2022-11-15T18:04:28.837Z,97178.06
2022-11-15T18:06:33.708Z,97167.94
2022-11-15T18:08:34.998Z,97169.66
2022-11-15T18:10:36.271Z,97166.38
2022-11-15T18:12:40.330Z,97172.38
2022-11-15T18:14:41.681Z,97169.09
2022-11-15T18:16:46.162Z,97169.97
2022-11-15T18:18:56.798Z,97170.03
2022-11-15T18:21:00.712Z,97161.63
2022-11-15T18:23:04.208Z,97159.16
2022-11-15T18:25:06.751Z,97170.22
2022-11-15T18:27:11.162Z,97161.81
2022-11-15T18:29:12.460Z,97157.63
2022-11-15T18:31:17.028Z,97160.19
2022-11-15T18:33:20.118Z,97150.09
2022-11-15T18:35:21.421Z,97142.47
2022-11-15T18:37:23.497Z,97149.28
2022-11-15T18:39:24.779Z,97151.84
2022-11-15T18:41:31.753Z,97145.94
2022-11-15T18:43:35.603Z,97151.06
2022-11-15T18:45:37.260Z,97158.69
2022-11-15T18:47:41.483Z,97149.38
2022-11-15T18:49:42.839Z,97149.38
2022-11-15T18:51:44.131Z,97150.19
2022-11-15T18:53:46.136Z,97145.88
2022-11-15T18:55:47.958Z,97144.88
2022-11-15T18:57:49.262Z,97151.53
2022-11-15T18:59:50.950Z,97151.44
2022-11-15T19:01:52.377Z,97009.50
2022-11-15T19:03:53.863Z,97162.19
2022-11-15T19:06:10.333Z,97164.72
2022-11-15T19:08:17.433Z,97165.66
2022-11-15T19:10:20.484Z,97151.31
2022-11-15T19:12:21.813Z,97152.25
2022-11-15T19:14:24.439Z,97155.69
2022-11-15T19:16:28.063Z,97155.75
2022-11-15T19:18:35.170Z,97161.63
2022-11-15T19:20:39.333Z,97160.72
2022-11-15T19:22:41.201Z,97162.34
2022-11-15T19:24:48.880Z,97168.22
2022-11-15T19:26:54.522Z,97156.25
2022-11-15T19:28:58.034Z,97151.91
2022-11-15T19:30:59.318Z,97150.06
2022-11-15T19:33:00.609Z,97157.66
2022-11-15T19:35:01.901Z,97150.81
2022-11-15T19:37:03.418Z,97145.72
2022-11-15T19:39:08.338Z,97149.16
2022-11-15T19:41:09.768Z,97143.22
2022-11-15T19:43:11.068Z,97135.66
2022-11-15T19:45:12.381Z,97134.03
2022-11-15T19:47:13.668Z,97135.78
2022-11-15T19:49:15.767Z,97129.94
2022-11-15T19:51:21.818Z,97124.06
2022-11-15T19:53:23.098Z,97132.59
2022-11-15T19:55:24.390Z,97111.50
2022-11-15T19:57:25.698Z,97117.50
2022-11-15T19:59:27.055Z,97115.81
2022-11-15T20:01:28.530Z,97113.31
2022-11-15T20:03:30.120Z,97110.00
2022-11-15T20:05:31.744Z,97111.72
2022-11-15T20:07:33.095Z,97103.31
2022-11-15T20:09:34.529Z,97104.22
2022-11-15T20:11:38.737Z,97107.63
2022-11-15T20:13:40.042Z,97107.69
2022-11-15T20:15:41.356Z,97112.81
2022-11-15T20:17:42.673Z,97104.34
2022-11-15T20:19:44.828Z,97106.94
2022-11-15T20:21:46.153Z,97106.16
2022-11-15T20:23:47.936Z,97102.78
2022-11-15T20:25:49.241Z,97111.25
2022-11-15T20:27:53.436Z,97112.94
2022-11-15T20:29:54.736Z,97103.63
2022-11-15T20:31:56.029Z,97100.25
2022-11-15T20:33:57.407Z,97100.97
2022-11-15T20:35:58.757Z,97104.34
2022-11-15T20:38:00.030Z,97104.28
2022-11-15T20:40:01.410Z,97104.16
2022-11-15T20:42:03.673Z,97101.53
2022-11-15T20:44:05.162Z,97100.59
2022-11-15T20:46:06.453Z,97102.19
2022-11-15T20:48:07.798Z,97099.53
2022-11-15T20:50:35.317Z,97091.81
2022-11-15T20:52:30.425Z,97099.34
2022-11-15T20:54:31.760Z,97084.03
2022-11-15T20:56:33.053Z,97086.50
2022-11-15T20:58:37.165Z,97080.38
2022-11-15T21:00:38.473Z,97084.47
2022-11-15T21:02:39.793Z,97087.78
2022-11-15T21:04:41.177Z,97078.47
2022-11-15T21:06:47.473Z,97081.81
2022-11-15T21:09:09.070Z,97072.53
2022-11-15T21:11:28.970Z,97070.94
2022-11-15T21:13:30.329Z,97067.66
2022-11-15T21:15:31.612Z,97059.31
2022-11-15T21:17:33.816Z,97060.22
2022-11-15T21:19:37.033Z,97062.06
2022-11-15T21:21:38.517Z,97054.50
2022-11-15T21:23:40.821Z,97061.41
2022-11-15T21:25:42.127Z,97060.66
2022-11-15T21:27:43.397Z,97058.13
2022-11-15T21:29:45.736Z,97052.31
2022-11-15T21:31:49.878Z,97046.44
2022-11-15T21:33:51.840Z,97043.09
2022-11-15T21:35:53.357Z,97051.63
2022-11-15T21:37:56.939Z,97041.50
2022-11-15T21:39:58.626Z,97038.22
2022-11-15T21:41:59.914Z,97035.75
2022-11-15T21:44:03.817Z,97042.53
2022-11-15T21:46:05.096Z,97029.94
2022-11-15T21:48:06.383Z,97033.31
2022-11-15T21:50:09.357Z,97035.88
2022-11-15T21:52:12.536Z,97029.16
2022-11-15T21:54:18.018Z,97030.00
2022-11-15T21:56:19.317Z,97038.53
2022-11-15T21:58:22.693Z,97029.28
2022-11-15T22:00:42.872Z,97035.19
2022-11-15T22:02:44.170Z,97031.78
2022-11-15T22:04:45.978Z,97032.63
2022-11-15T22:06:47.395Z,97037.66
2022-11-15T22:08:48.721Z,97021.53
2022-11-15T22:10:52.025Z,97029.94
2022-11-15T22:12:53.310Z,97025.56
2022-11-15T22:14:55.325Z,97031.38
2022-11-15T22:16:57.308Z,97011.78
2022-11-15T22:18:58.663Z,97010.81
2022-11-15T22:21:01.053Z,97008.13
2022-11-15T22:23:02.369Z,97008.03
2022-11-15T22:25:04.034Z,97004.47
2022-11-15T22:27:06.505Z,97009.44
2022-11-15T22:29:09.353Z,97001.66
2022-11-15T22:31:10.688Z,96993.03
2022-11-15T22:33:13.593Z,97000.53
2022-11-15T22:35:14.942Z,96997.06
2022-11-15T22:37:21.077Z,97000.34
2022-11-15T22:39:24.349Z,96995.25
2022-11-15T22:41:25.686Z,96991.03
2022-11-15T22:43:28.584Z,96990.28
2022-11-15T22:45:29.922Z,96989.56
2022-11-15T22:47:31.434Z,96988.81
2022-11-15T22:49:33.862Z,96802.19
2022-11-15T22:51:35.168Z,96973.75
2022-11-15T22:53:37.376Z,96976.44
2022-11-15T22:55:40.971Z,96854.13
2022-11-15T22:57:44.225Z,96970.69
2022-11-15T22:59:45.893Z,96974.22
2022-11-15T23:01:48.358Z,96970.03
2022-11-15T23:03:49.755Z,96965.88
2022-11-15T23:05:51.756Z,96972.72
2022-11-15T23:07:53.049Z,96960.09
2022-11-15T23:10:13.199Z,96961.81
2022-11-15T23:12:34.405Z,96953.47
2022-11-15T23:14:35.714Z,96950.13
2022-11-15T23:16:37.078Z,96939.16
2022-11-15T23:18:40.492Z,96935.06
2022-11-15T23:20:43.866Z,96946.09
2022-11-15T23:22:48.508Z,96932.59
2022-11-15T23:24:50.014Z,96928.34
2022-11-15T23:26:51.749Z,96933.47
2022-11-15T23:28:54.105Z,96935.22
2022-11-15T23:31:16.062Z,96936.97
2022-11-15T23:33:37.465Z,96939.53
2022-11-15T23:35:39.067Z,96934.44
2022-11-15T23:37:40.893Z,96931.91
2022-11-15T23:39:43.850Z,96930.97
2022-11-15T23:41:45.161Z,96922.44
2022-11-15T23:43:49.750Z,96924.09
2022-11-15T23:45:51.053Z,96921.47
2022-11-15T23:47:55.862Z,96928.13
2022-11-15T23:50:01.366Z,96913.59
2022-11-15T23:52:04.580Z,96927.84
2022-11-15T23:54:09.305Z,96920.97
2022-11-15T23:56:11.335Z,96918.28
2022-11-15T23:58:13.073Z,96915.59
